sensor_id;sensor_type;location;lat;lon;timestamp;P1;durP1;ratioP1;P2;durP2;ratioP2
23802;SDS011;12082;51.786;6.018;2023-04-01T00:00:46;17.60;;;15.83;;
23802;SDS011;12082;51.786;6.018;2023-04-01T00:03:12;17.50;;;15.67;;
23802;SDS011;12082;51.786;6.018;2023-04-01T00:05:39;17.37;;;15.80;;
23802;SDS011;12082;51.786;6.018;2023-04-01T00:08:05;15.80;;;14.77;;
23802;SDS011;12082;51.786;6.018;2023-04-01T00:10:31;16.47;;;15.07;;
23802;SDS011;12082;51.786;6.018;2023-04-01T00:12:56;16.17;;;15.03;;
23802;SDS011;12082;51.786;6.018;2023-04-01T00:15:22;16.90;;;15.53;;
23802;SDS011;12082;51.786;6.018;2023-04-01T00:17:48;16.73;;;15.33;;
23802;SDS011;12082;51.786;6.018;2023-04-01T00:20:14;16.57;;;15.17;;
23802;SDS011;12082;51.786;6.018;2023-04-01T00:22:41;16.53;;;15.30;;
23802;SDS011;12082;51.786;6.018;2023-04-01T00:25:07;16.50;;;15.17;;
23802;SDS011;12082;51.786;6.018;2023-04-01T00:27:33;18.03;;;16.43;;
23802;SDS011;12082;51.786;6.018;2023-04-01T00:29:59;16.13;;;15.00;;
23802;SDS011;12082;51.786;6.018;2023-04-01T00:32:26;18.00;;;15.60;;
23802;SDS011;12082;51.786;6.018;2023-04-01T00:34:52;17.20;;;15.77;;
23802;SDS011;12082;51.786;6.018;2023-04-01T00:37:18;16.57;;;15.37;;
23802;SDS011;12082;51.786;6.018;2023-04-01T00:39:45;18.00;;;16.17;;
23802;SDS011;12082;51.786;6.018;2023-04-01T00:42:12;18.00;;;16.50;;
23802;SDS011;12082;51.786;6.018;2023-04-01T00:44:38;17.70;;;16.50;;
23802;SDS011;12082;51.786;6.018;2023-04-01T00:47:05;16.93;;;15.53;;
23802;SDS011;12082;51.786;6.018;2023-04-01T00:49:40;17.93;;;16.53;;
23802;SDS011;12082;51.786;6.018;2023-04-01T00:52:08;17.50;;;15.90;;
23802;SDS011;12082;51.786;6.018;2023-04-01T00:54:36;17.13;;;15.63;;
23802;SDS011;12082;51.786;6.018;2023-04-01T00:57:08;17.43;;;16.10;;
23802;SDS011;12082;51.786;6.018;2023-04-01T00:59:44;17.27;;;15.60;;
23802;SDS011;12082;51.786;6.018;2023-04-01T01:02:12;16.93;;;15.47;;
23802;SDS011;12082;51.786;6.018;2023-04-01T01:04:38;18.30;;;16.70;;
23802;SDS011;12082;51.786;6.018;2023-04-01T01:09:37;17.63;;;15.83;;
23802;SDS011;12082;51.786;6.018;2023-04-01T01:12:07;16.97;;;15.50;;
23802;SDS011;12082;51.786;6.018;2023-04-01T01:17:10;16.90;;;15.43;;
23802;SDS011;12082;51.786;6.018;2023-04-01T01:19:51;17.33;;;15.63;;
23802;SDS011;12082;51.786;6.018;2023-04-01T01:24:52;17.07;;;15.60;;
23802;SDS011;12082;51.786;6.018;2023-04-01T01:27:20;16.77;;;15.27;;
23802;SDS011;12082;51.786;6.018;2023-04-01T01:32:38;17.77;;;16.23;;
23802;SDS011;12082;51.786;6.018;2023-04-01T01:37:54;17.03;;;15.70;;
23802;SDS011;12082;51.786;6.018;2023-04-01T01:40:21;18.90;;;17.10;;
23802;SDS011;12082;51.786;6.018;2023-04-01T01:42:48;18.10;;;16.17;;
23802;SDS011;12082;51.786;6.018;2023-04-01T01:45:15;21.43;;;17.63;;
23802;SDS011;12082;51.786;6.018;2023-04-01T01:47:43;19.03;;;17.23;;
23802;SDS011;12082;51.786;6.018;2023-04-01T01:50:09;19.30;;;16.70;;
23802;SDS011;12082;51.786;6.018;2023-04-01T01:52:36;18.83;;;17.03;;
23802;SDS011;12082;51.786;6.018;2023-04-01T01:55:02;20.10;;;18.20;;
23802;SDS011;12082;51.786;6.018;2023-04-01T01:57:29;20.43;;;18.00;;
23802;SDS011;12082;51.786;6.018;2023-04-01T01:59:58;18.80;;;16.77;;
23802;SDS011;12082;51.786;6.018;2023-04-01T02:02:26;20.00;;;18.00;;
23802;SDS011;12082;51.786;6.018;2023-04-01T02:04:56;19.77;;;17.77;;
23802;SDS011;12082;51.786;6.018;2023-04-01T02:07:27;20.50;;;18.40;;
23802;SDS011;12082;51.786;6.018;2023-04-01T02:09:56;23.27;;;18.90;;
23802;SDS011;12082;51.786;6.018;2023-04-01T02:12:22;22.20;;;19.67;;
23802;SDS011;12082;51.786;6.018;2023-04-01T02:14:51;21.53;;;18.27;;
23802;SDS011;12082;51.786;6.018;2023-04-01T02:17:19;20.17;;;18.20;;
23802;SDS011;12082;51.786;6.018;2023-04-01T02:22:12;20.57;;;18.43;;
23802;SDS011;12082;51.786;6.018;2023-04-01T02:24:40;25.30;;;19.13;;
23802;SDS011;12082;51.786;6.018;2023-04-01T02:27:08;24.37;;;19.33;;
23802;SDS011;12082;51.786;6.018;2023-04-01T02:29:34;21.00;;;18.90;;
23802;SDS011;12082;51.786;6.018;2023-04-01T02:32:00;24.83;;;20.47;;
23802;SDS011;12082;51.786;6.018;2023-04-01T02:34:27;21.90;;;19.60;;
23802;SDS011;12082;51.786;6.018;2023-04-01T02:36:53;24.57;;;20.17;;
23802;SDS011;12082;51.786;6.018;2023-04-01T02:39:21;24.50;;;19.93;;
23802;SDS011;12082;51.786;6.018;2023-04-01T02:41:47;26.03;;;20.60;;
23802;SDS011;12082;51.786;6.018;2023-04-01T02:44:14;22.20;;;19.93;;
23802;SDS011;12082;51.786;6.018;2023-04-01T02:46:41;29.33;;;21.03;;
23802;SDS011;12082;51.786;6.018;2023-04-01T02:49:07;28.43;;;22.20;;
23802;SDS011;12082;51.786;6.018;2023-04-01T02:51:33;26.97;;;21.10;;
23802;SDS011;12082;51.786;6.018;2023-04-01T02:53:59;26.73;;;21.83;;
23802;SDS011;12082;51.786;6.018;2023-04-01T02:56:25;26.53;;;20.73;;
23802;SDS011;12082;51.786;6.018;2023-04-01T02:58:52;22.37;;;19.83;;
23802;SDS011;12082;51.786;6.018;2023-04-01T03:01:18;24.10;;;19.73;;
23802;SDS011;12082;51.786;6.018;2023-04-01T03:03:44;24.20;;;19.70;;
23802;SDS011;12082;51.786;6.018;2023-04-01T03:06:11;23.37;;;19.07;;
23802;SDS011;12082;51.786;6.018;2023-04-01T03:08:37;26.87;;;19.27;;
23802;SDS011;12082;51.786;6.018;2023-04-01T03:11:03;26.03;;;21.17;;
23802;SDS011;12082;51.786;6.018;2023-04-01T03:13:30;24.97;;;19.70;;
23802;SDS011;12082;51.786;6.018;2023-04-01T03:15:56;27.17;;;19.60;;
23802;SDS011;12082;51.786;6.018;2023-04-01T03:18:22;21.60;;;18.53;;
23802;SDS011;12082;51.786;6.018;2023-04-01T03:20:48;21.03;;;18.23;;
23802;SDS011;12082;51.786;6.018;2023-04-01T03:23:14;22.63;;;18.97;;
23802;SDS011;12082;51.786;6.018;2023-04-01T03:25:42;22.90;;;18.73;;
23802;SDS011;12082;51.786;6.018;2023-04-01T03:28:08;26.50;;;19.20;;
23802;SDS011;12082;51.786;6.018;2023-04-01T03:30:34;29.90;;;21.80;;
23802;SDS011;12082;51.786;6.018;2023-04-01T03:33:00;32.60;;;21.73;;
23802;SDS011;12082;51.786;6.018;2023-04-01T03:35:26;35.50;;;21.47;;
23802;SDS011;12082;51.786;6.018;2023-04-01T03:37:53;24.37;;;19.10;;
23802;SDS011;12082;51.786;6.018;2023-04-01T03:40:20;26.30;;;19.47;;
23802;SDS011;12082;51.786;6.018;2023-04-01T03:42:46;26.83;;;19.03;;
23802;SDS011;12082;51.786;6.018;2023-04-01T03:45:12;26.77;;;18.40;;
23802;SDS011;12082;51.786;6.018;2023-04-01T03:47:38;21.47;;;17.30;;
23802;SDS011;12082;51.786;6.018;2023-04-01T03:50:04;22.13;;;17.90;;
23802;SDS011;12082;51.786;6.018;2023-04-01T03:52:31;21.27;;;18.50;;
23802;SDS011;12082;51.786;6.018;2023-04-01T03:54:57;20.70;;;18.27;;
23802;SDS011;12082;51.786;6.018;2023-04-01T03:57:23;21.90;;;17.50;;
23802;SDS011;12082;51.786;6.018;2023-04-01T03:59:49;22.17;;;18.60;;
23802;SDS011;12082;51.786;6.018;2023-04-01T04:02:15;23.53;;;18.23;;
23802;SDS011;12082;51.786;6.018;2023-04-01T04:04:41;28.23;;;19.07;;
23802;SDS011;12082;51.786;6.018;2023-04-01T04:07:07;22.73;;;19.67;;
23802;SDS011;12082;51.786;6.018;2023-04-01T04:09:33;27.80;;;20.37;;
23802;SDS011;12082;51.786;6.018;2023-04-01T04:12:00;30.83;;;19.67;;
23802;SDS011;12082;51.786;6.018;2023-04-01T04:14:26;22.90;;;20.57;;
23802;SDS011;12082;51.786;6.018;2023-04-01T04:16:52;24.57;;;20.17;;
23802;SDS011;12082;51.786;6.018;2023-04-01T04:19:18;25.70;;;19.60;;
23802;SDS011;12082;51.786;6.018;2023-04-01T04:21:44;28.37;;;20.13;;
23802;SDS011;12082;51.786;6.018;2023-04-01T04:24:10;31.63;;;21.27;;
23802;SDS011;12082;51.786;6.018;2023-04-01T04:26:36;31.97;;;20.13;;
23802;SDS011;12082;51.786;6.018;2023-04-01T04:29:02;33.90;;;20.67;;
23802;SDS011;12082;51.786;6.018;2023-04-01T04:31:28;29.93;;;20.57;;
23802;SDS011;12082;51.786;6.018;2023-04-01T04:33:54;32.30;;;21.43;;
23802;SDS011;12082;51.786;6.018;2023-04-01T04:36:21;32.27;;;20.97;;
23802;SDS011;12082;51.786;6.018;2023-04-01T04:38:47;26.63;;;19.07;;
23802;SDS011;12082;51.786;6.018;2023-04-01T04:41:14;26.87;;;18.93;;
23802;SDS011;12082;51.786;6.018;2023-04-01T04:43:41;28.93;;;20.33;;
23802;SDS011;12082;51.786;6.018;2023-04-01T04:46:08;21.30;;;18.77;;
23802;SDS011;12082;51.786;6.018;2023-04-01T04:48:34;23.23;;;17.67;;
23802;SDS011;12082;51.786;6.018;2023-04-01T04:51:00;22.93;;;18.50;;
23802;SDS011;12082;51.786;6.018;2023-04-01T04:53:26;22.57;;;19.13;;
23802;SDS011;12082;51.786;6.018;2023-04-01T04:55:52;23.53;;;18.47;;
23802;SDS011;12082;51.786;6.018;2023-04-01T04:58:18;22.60;;;18.20;;
23802;SDS011;12082;51.786;6.018;2023-04-01T05:00:45;23.10;;;19.50;;
23802;SDS011;12082;51.786;6.018;2023-04-01T05:03:11;24.87;;;19.13;;
23802;SDS011;12082;51.786;6.018;2023-04-01T05:05:37;23.17;;;19.00;;
23802;SDS011;12082;51.786;6.018;2023-04-01T05:08:04;22.37;;;19.50;;
23802;SDS011;12082;51.786;6.018;2023-04-01T05:10:30;26.47;;;20.80;;
23802;SDS011;12082;51.786;6.018;2023-04-01T05:12:56;25.47;;;20.40;;
23802;SDS011;12082;51.786;6.018;2023-04-01T05:15:22;27.07;;;20.87;;
23802;SDS011;12082;51.786;6.018;2023-04-01T05:17:48;26.33;;;20.57;;
23802;SDS011;12082;51.786;6.018;2023-04-01T05:20:14;29.37;;;20.70;;
23802;SDS011;12082;51.786;6.018;2023-04-01T05:22:41;31.17;;;20.30;;
23802;SDS011;12082;51.786;6.018;2023-04-01T05:25:07;25.57;;;19.90;;
23802;SDS011;12082;51.786;6.018;2023-04-01T05:27:33;25.80;;;19.80;;
23802;SDS011;12082;51.786;6.018;2023-04-01T05:29:59;26.27;;;19.83;;
23802;SDS011;12082;51.786;6.018;2023-04-01T05:32:25;27.93;;;20.07;;
23802;SDS011;12082;51.786;6.018;2023-04-01T05:34:51;25.87;;;20.10;;
23802;SDS011;12082;51.786;6.018;2023-04-01T05:37:17;24.47;;;19.10;;
23802;SDS011;12082;51.786;6.018;2023-04-01T05:39:43;27.17;;;19.77;;
23802;SDS011;12082;51.786;6.018;2023-04-01T05:42:09;25.17;;;18.93;;
23802;SDS011;12082;51.786;6.018;2023-04-01T05:44:35;28.30;;;20.77;;
23802;SDS011;12082;51.786;6.018;2023-04-01T05:47:02;27.47;;;19.53;;
23802;SDS011;12082;51.786;6.018;2023-04-01T05:49:28;27.70;;;20.20;;
23802;SDS011;12082;51.786;6.018;2023-04-01T05:51:55;33.33;;;22.23;;
23802;SDS011;12082;51.786;6.018;2023-04-01T05:54:20;27.53;;;20.07;;
23802;SDS011;12082;51.786;6.018;2023-04-01T05:56:46;30.07;;;21.03;;
23802;SDS011;12082;51.786;6.018;2023-04-01T05:59:13;31.13;;;21.40;;
23802;SDS011;12082;51.786;6.018;2023-04-01T06:01:39;28.97;;;20.63;;
23802;SDS011;12082;51.786;6.018;2023-04-01T06:04:05;29.00;;;20.53;;
23802;SDS011;12082;51.786;6.018;2023-04-01T06:06:32;34.47;;;23.43;;
23802;SDS011;12082;51.786;6.018;2023-04-01T06:09:05;47.10;;;26.20;;
23802;SDS011;12082;51.786;6.018;2023-04-01T06:11:46;43.80;;;25.53;;
23802;SDS011;12082;51.786;6.018;2023-04-01T06:14:20;50.10;;;26.33;;
23802;SDS011;12082;51.786;6.018;2023-04-01T06:19:40;55.47;;;28.33;;
23802;SDS011;12082;51.786;6.018;2023-04-01T06:22:13;60.90;;;28.23;;
23802;SDS011;12082;51.786;6.018;2023-04-01T06:27:36;62.13;;;29.10;;
23802;SDS011;12082;51.786;6.018;2023-04-01T06:32:39;57.40;;;29.60;;
23802;SDS011;12082;51.786;6.018;2023-04-01T06:45:01;55.67;;;26.70;;
23802;SDS011;12082;51.786;6.018;2023-04-01T06:50:22;58.00;;;24.60;;
23802;SDS011;12082;51.786;6.018;2023-04-01T06:57:47;54.50;;;25.57;;
23802;SDS011;12082;51.786;6.018;2023-04-01T07:00:36;63.50;;;27.40;;
23802;SDS011;12082;51.786;6.018;2023-04-01T07:05:28;59.00;;;28.53;;
23802;SDS011;12082;51.786;6.018;2023-04-01T07:07:56;70.37;;;31.43;;
23802;SDS011;12082;51.786;6.018;2023-04-01T07:10:25;67.50;;;32.63;;
23802;SDS011;12082;51.786;6.018;2023-04-01T07:12:55;72.93;;;30.33;;
23802;SDS011;12082;51.786;6.018;2023-04-01T07:15:24;76.97;;;31.80;;
23802;SDS011;12082;51.786;6.018;2023-04-01T07:17:52;81.83;;;32.43;;
23802;SDS011;12082;51.786;6.018;2023-04-01T07:20:22;70.93;;;31.40;;
23802;SDS011;12082;51.786;6.018;2023-04-01T07:23:00;77.63;;;31.90;;
23802;SDS011;12082;51.786;6.018;2023-04-01T07:25:31;74.57;;;29.27;;
23802;SDS011;12082;51.786;6.018;2023-04-01T07:28:01;75.27;;;30.93;;
23802;SDS011;12082;51.786;6.018;2023-04-01T07:30:28;72.87;;;30.13;;
23802;SDS011;12082;51.786;6.018;2023-04-01T07:40:58;66.93;;;27.90;;
23802;SDS011;12082;51.786;6.018;2023-04-01T07:45:56;58.70;;;27.17;;
23802;SDS011;12082;51.786;6.018;2023-04-01T07:53:51;56.77;;;25.97;;
23802;SDS011;12082;51.786;6.018;2023-04-01T07:56:26;54.63;;;26.13;;
23802;SDS011;12082;51.786;6.018;2023-04-01T07:58:57;59.30;;;28.23;;
23802;SDS011;12082;51.786;6.018;2023-04-01T08:04:27;49.83;;;26.23;;
23802;SDS011;12082;51.786;6.018;2023-04-01T08:14:33;42.70;;;21.40;;
23802;SDS011;12082;51.786;6.018;2023-04-01T08:20:07;35.60;;;20.23;;
23802;SDS011;12082;51.786;6.018;2023-04-01T08:22:27;38.87;;;22.07;;
23802;SDS011;12082;51.786;6.018;2023-04-01T08:24:55;34.73;;;21.03;;
23802;SDS011;12082;51.786;6.018;2023-04-01T08:27:26;38.87;;;22.53;;
23802;SDS011;12082;51.786;6.018;2023-04-01T08:32:36;39.43;;;21.73;;
23802;SDS011;12082;51.786;6.018;2023-04-01T08:37:36;33.23;;;22.33;;
23802;SDS011;12082;51.786;6.018;2023-04-01T08:42:43;29.50;;;20.43;;
23802;SDS011;12082;51.786;6.018;2023-04-01T08:47:46;23.57;;;18.50;;
23802;SDS011;12082;51.786;6.018;2023-04-01T08:50:31;27.43;;;17.47;;
23802;SDS011;12082;51.786;6.018;2023-04-01T08:53:24;27.90;;;18.17;;
23802;SDS011;12082;51.786;6.018;2023-04-01T08:55:53;22.70;;;17.70;;
23802;SDS011;12082;51.786;6.018;2023-04-01T08:58:37;25.90;;;18.47;;
23802;SDS011;12082;51.786;6.018;2023-04-01T09:03:41;29.43;;;20.33;;
23802;SDS011;12082;51.786;6.018;2023-04-01T09:31:56;27.00;;;19.70;;
23802;SDS011;12082;51.786;6.018;2023-04-01T09:34:30;30.83;;;20.37;;
23802;SDS011;12082;51.786;6.018;2023-04-01T09:44:53;29.90;;;19.37;;
23802;SDS011;12082;51.786;6.018;2023-04-01T09:47:35;30.50;;;20.27;;
23802;SDS011;12082;51.786;6.018;2023-04-01T10:09:12;28.23;;;19.70;;
23802;SDS011;12082;51.786;6.018;2023-04-01T10:19:39;38.60;;;22.10;;
23802;SDS011;12082;51.786;6.018;2023-04-01T10:24:42;39.70;;;21.93;;
23802;SDS011;12082;51.786;6.018;2023-04-01T10:27:33;35.73;;;22.43;;
23802;SDS011;12082;51.786;6.018;2023-04-01T10:30:13;38.03;;;22.77;;
23802;SDS011;12082;51.786;6.018;2023-04-01T10:32:59;35.03;;;22.60;;
23802;SDS011;12082;51.786;6.018;2023-04-01T10:43:32;40.13;;;23.97;;
23802;SDS011;12082;51.786;6.018;2023-04-01T10:46:17;50.17;;;26.67;;
23802;SDS011;12082;51.786;6.018;2023-04-01T10:54:02;50.40;;;27.60;;
23802;SDS011;12082;51.786;6.018;2023-04-01T10:56:36;48.97;;;26.43;;
23802;SDS011;12082;51.786;6.018;2023-04-01T11:06:49;51.57;;;28.00;;
23802;SDS011;12082;51.786;6.018;2023-04-01T11:12:31;57.23;;;28.37;;
23802;SDS011;12082;51.786;6.018;2023-04-01T11:17:42;57.23;;;29.03;;
23802;SDS011;12082;51.786;6.018;2023-04-01T11:20:28;54.07;;;26.97;;
23802;SDS011;12082;51.786;6.018;2023-04-01T11:25:45;47.00;;;27.10;;
23802;SDS011;12082;51.786;6.018;2023-04-01T11:31:00;53.53;;;27.70;;
23802;SDS011;12082;51.786;6.018;2023-04-01T11:33:31;48.53;;;25.27;;
23802;SDS011;12082;51.786;6.018;2023-04-01T11:46:25;31.57;;;20.77;;
23802;SDS011;12082;51.786;6.018;2023-04-01T11:49:02;46.00;;;25.20;;
23802;SDS011;12082;51.786;6.018;2023-04-01T12:01:48;41.87;;;23.63;;
23802;SDS011;12082;51.786;6.018;2023-04-01T12:14:32;48.73;;;28.90;;
23802;SDS011;12082;51.786;6.018;2023-04-01T12:26:59;45.20;;;27.90;;
23802;SDS011;12082;51.786;6.018;2023-04-01T12:39:58;50.07;;;25.10;;
23802;SDS011;12082;51.786;6.018;2023-04-01T13:00:30;42.70;;;24.10;;
23802;SDS011;12082;51.786;6.018;2023-04-01T13:08:42;30.80;;;22.77;;
23802;SDS011;12082;51.786;6.018;2023-04-01T13:11:20;34.77;;;23.67;;
23802;SDS011;12082;51.786;6.018;2023-04-01T13:21:49;28.57;;;19.93;;
23802;SDS011;12082;51.786;6.018;2023-04-01T13:29:19;28.40;;;19.80;;
23802;SDS011;12082;51.786;6.018;2023-04-01T13:31:50;21.63;;;17.17;;
23802;SDS011;12082;51.786;6.018;2023-04-01T13:36:59;18.07;;;16.23;;
23802;SDS011;12082;51.786;6.018;2023-04-01T13:42:12;21.53;;;16.37;;
23802;SDS011;12082;51.786;6.018;2023-04-01T13:44:42;22.53;;;20.13;;
23802;SDS011;12082;51.786;6.018;2023-04-01T13:52:30;18.00;;;16.47;;
23802;SDS011;12082;51.786;6.018;2023-04-01T13:55:10;16.27;;;14.87;;
23802;SDS011;12082;51.786;6.018;2023-04-01T13:58:11;19.80;;;17.67;;
23802;SDS011;12082;51.786;6.018;2023-04-01T14:03:12;24.17;;;18.60;;
23802;SDS011;12082;51.786;6.018;2023-04-01T14:16:37;23.00;;;20.60;;
23802;SDS011;12082;51.786;6.018;2023-04-01T14:21:58;28.30;;;20.40;;
23802;SDS011;12082;51.786;6.018;2023-04-01T14:27:09;28.50;;;19.40;;
23802;SDS011;12082;51.786;6.018;2023-04-01T14:29:42;26.60;;;21.43;;
23802;SDS011;12082;51.786;6.018;2023-04-01T14:40:54;24.60;;;21.97;;
23802;SDS011;12082;51.786;6.018;2023-04-01T14:48:28;27.90;;;23.20;;
23802;SDS011;12082;51.786;6.018;2023-04-01T14:50:57;23.97;;;21.50;;
23802;SDS011;12082;51.786;6.018;2023-04-01T14:53:29;27.37;;;21.20;;
23802;SDS011;12082;51.786;6.018;2023-04-01T14:56:00;20.13;;;18.13;;
23802;SDS011;12082;51.786;6.018;2023-04-01T14:58:46;24.13;;;21.13;;
23802;SDS011;12082;51.786;6.018;2023-04-01T15:04:15;25.50;;;22.77;;
23802;SDS011;12082;51.786;6.018;2023-04-01T15:06:54;19.50;;;16.60;;
23802;SDS011;12082;51.786;6.018;2023-04-01T15:14:42;20.43;;;18.27;;
23802;SDS011;12082;51.786;6.018;2023-04-01T15:27:51;16.93;;;15.40;;
23802;SDS011;12082;51.786;6.018;2023-04-01T15:30:32;15.77;;;14.20;;
23802;SDS011;12082;51.786;6.018;2023-04-01T15:33:11;14.13;;;12.97;;
23802;SDS011;12082;51.786;6.018;2023-04-01T15:38:30;13.37;;;12.37;;
23802;SDS011;12082;51.786;6.018;2023-04-01T15:43:44;12.20;;;11.50;;
23802;SDS011;12082;51.786;6.018;2023-04-01T15:54:20;11.03;;;10.40;;
23802;SDS011;12082;51.786;6.018;2023-04-01T16:01:59;12.60;;;12.00;;
23802;SDS011;12082;51.786;6.018;2023-04-01T16:07:16;13.07;;;12.37;;
23802;SDS011;12082;51.786;6.018;2023-04-01T16:18:37;12.80;;;12.10;;
23802;SDS011;12082;51.786;6.018;2023-04-01T16:21:12;14.83;;;13.93;;
23802;SDS011;12082;51.786;6.018;2023-04-01T16:26:07;15.07;;;14.20;;
23802;SDS011;12082;51.786;6.018;2023-04-01T16:33:55;16.37;;;15.57;;
23802;SDS011;12082;51.786;6.018;2023-04-01T16:36:33;17.53;;;16.47;;
23802;SDS011;12082;51.786;6.018;2023-04-01T16:39:22;17.43;;;16.47;;
23802;SDS011;12082;51.786;6.018;2023-04-01T16:41:52;16.43;;;15.40;;
23802;SDS011;12082;51.786;6.018;2023-04-01T16:44:24;16.97;;;15.90;;
23802;SDS011;12082;51.786;6.018;2023-04-01T16:46:51;17.20;;;16.10;;
23802;SDS011;12082;51.786;6.018;2023-04-01T16:54:36;15.47;;;14.07;;
23802;SDS011;12082;51.786;6.018;2023-04-01T17:12:09;19.20;;;17.40;;
23802;SDS011;12082;51.786;6.018;2023-04-01T17:17:34;17.83;;;16.13;;
23802;SDS011;12082;51.786;6.018;2023-04-01T17:20:13;18.97;;;17.10;;
23802;SDS011;12082;51.786;6.018;2023-04-01T17:22:46;18.23;;;16.43;;
23802;SDS011;12082;51.786;6.018;2023-04-01T17:27:47;18.53;;;16.83;;
23802;SDS011;12082;51.786;6.018;2023-04-01T17:30:22;16.90;;;15.30;;
23802;SDS011;12082;51.786;6.018;2023-04-01T17:35:57;17.70;;;16.10;;
23802;SDS011;12082;51.786;6.018;2023-04-01T17:40:59;19.10;;;17.40;;
23802;SDS011;12082;51.786;6.018;2023-04-01T17:43:39;20.03;;;18.23;;
23802;SDS011;12082;51.786;6.018;2023-04-01T17:49:00;23.10;;;20.77;;
23802;SDS011;12082;51.786;6.018;2023-04-01T17:51:40;23.33;;;20.83;;
23802;SDS011;12082;51.786;6.018;2023-04-01T17:56:40;21.87;;;19.87;;
23802;SDS011;12082;51.786;6.018;2023-04-01T17:59:16;20.50;;;18.40;;
23802;SDS011;12082;51.786;6.018;2023-04-01T18:06:55;22.63;;;18.93;;
23802;SDS011;12082;51.786;6.018;2023-04-01T18:12:04;21.67;;;19.33;;
23802;SDS011;12082;51.786;6.018;2023-04-01T18:17:23;26.13;;;21.13;;
23802;SDS011;12082;51.786;6.018;2023-04-01T18:22:25;22.63;;;20.23;;
23802;SDS011;12082;51.786;6.018;2023-04-01T18:24:59;21.60;;;19.47;;
23802;SDS011;12082;51.786;6.018;2023-04-01T18:27:31;22.43;;;20.07;;
23802;SDS011;12082;51.786;6.018;2023-04-01T18:30:00;24.83;;;22.37;;
23802;SDS011;12082;51.786;6.018;2023-04-01T18:34:57;31.47;;;24.40;;
23802;SDS011;12082;51.786;6.018;2023-04-01T18:37:28;28.83;;;22.70;;
23802;SDS011;12082;51.786;6.018;2023-04-01T18:39:59;24.73;;;22.13;;
23802;SDS011;12082;51.786;6.018;2023-04-01T18:42:31;23.33;;;20.87;;
23802;SDS011;12082;51.786;6.018;2023-04-01T18:52:57;27.60;;;24.50;;
23802;SDS011;12082;51.786;6.018;2023-04-01T18:55:37;27.77;;;24.70;;
23802;SDS011;12082;51.786;6.018;2023-04-01T18:58:18;27.40;;;24.50;;
23802;SDS011;12082;51.786;6.018;2023-04-01T19:00:49;29.00;;;25.83;;
23802;SDS011;12082;51.786;6.018;2023-04-01T19:03:23;32.70;;;26.63;;
23802;SDS011;12082;51.786;6.018;2023-04-01T19:05:52;30.77;;;25.80;;
23802;SDS011;12082;51.786;6.018;2023-04-01T19:11:11;31.10;;;25.43;;
23802;SDS011;12082;51.786;6.018;2023-04-01T19:13:52;30.57;;;27.27;;
23802;SDS011;12082;51.786;6.018;2023-04-01T19:16:26;33.83;;;27.03;;
23802;SDS011;12082;51.786;6.018;2023-04-01T19:21:40;34.17;;;26.27;;
23802;SDS011;12082;51.786;6.018;2023-04-01T19:24:17;31.27;;;27.40;;
23802;SDS011;12082;51.786;6.018;2023-04-01T19:32:05;29.97;;;26.77;;
23802;SDS011;12082;51.786;6.018;2023-04-01T19:42:32;31.27;;;26.53;;
23802;SDS011;12082;51.786;6.018;2023-04-01T19:52:47;26.00;;;23.47;;
23802;SDS011;12082;51.786;6.018;2023-04-01T19:55:32;27.47;;;23.67;;
23802;SDS011;12082;51.786;6.018;2023-04-01T20:00:31;27.47;;;24.50;;
23802;SDS011;12082;51.786;6.018;2023-04-01T20:13:08;35.43;;;28.60;;
23802;SDS011;12082;51.786;6.018;2023-04-01T20:15:38;30.93;;;26.27;;
23802;SDS011;12082;51.786;6.018;2023-04-01T20:18:12;28.53;;;25.50;;
23802;SDS011;12082;51.786;6.018;2023-04-01T20:20:39;27.70;;;24.77;;
23802;SDS011;12082;51.786;6.018;2023-04-01T20:25:39;30.00;;;25.17;;
23802;SDS011;12082;51.786;6.018;2023-04-01T20:30:52;27.17;;;24.43;;
23802;SDS011;12082;51.786;6.018;2023-04-01T20:33:32;29.87;;;26.67;;
23802;SDS011;12082;51.786;6.018;2023-04-01T20:38:56;31.60;;;28.30;;
23802;SDS011;12082;51.786;6.018;2023-04-01T20:41:37;30.17;;;27.00;;
23802;SDS011;12082;51.786;6.018;2023-04-01T20:44:16;30.20;;;27.03;;
23802;SDS011;12082;51.786;6.018;2023-04-01T20:46:48;30.67;;;27.60;;
23802;SDS011;12082;51.786;6.018;2023-04-01T20:57:18;29.07;;;26.07;;
23802;SDS011;12082;51.786;6.018;2023-04-01T21:02:36;29.67;;;25.77;;
23802;SDS011;12082;51.786;6.018;2023-04-01T21:08:01;33.37;;;26.90;;
23802;SDS011;12082;51.786;6.018;2023-04-01T21:10:48;35.00;;;28.80;;
23802;SDS011;12082;51.786;6.018;2023-04-01T21:13:21;42.23;;;30.67;;
23802;SDS011;12082;51.786;6.018;2023-04-01T21:16:07;40.97;;;31.43;;
23802;SDS011;12082;51.786;6.018;2023-04-01T21:29:44;29.60;;;26.40;;
23802;SDS011;12082;51.786;6.018;2023-04-01T21:31:53;32.13;;;27.40;;
23802;SDS011;12082;51.786;6.018;2023-04-01T21:34:30;31.63;;;28.10;;
23802;SDS011;12082;51.786;6.018;2023-04-01T21:39:58;40.60;;;30.43;;
23802;SDS011;12082;51.786;6.018;2023-04-01T21:42:28;33.47;;;28.20;;
23802;SDS011;12082;51.786;6.018;2023-04-01T21:45:00;38.23;;;29.87;;
23802;SDS011;12082;51.786;6.018;2023-04-01T21:52:38;35.03;;;31.23;;
23802;SDS011;12082;51.786;6.018;2023-04-01T22:00:25;36.20;;;30.57;;
23802;SDS011;12082;51.786;6.018;2023-04-01T22:05:28;32.77;;;29.43;;
23802;SDS011;12082;51.786;6.018;2023-04-01T22:15:52;30.73;;;27.50;;
23802;SDS011;12082;51.786;6.018;2023-04-01T22:21:07;28.37;;;25.53;;
23802;SDS011;12082;51.786;6.018;2023-04-01T22:23:46;28.57;;;25.57;;
23802;SDS011;12082;51.786;6.018;2023-04-01T22:29:26;28.07;;;25.10;;
23802;SDS011;12082;51.786;6.018;2023-04-01T22:31:34;27.07;;;24.47;;
23802;SDS011;12082;51.786;6.018;2023-04-01T22:49:48;27.67;;;24.83;;
23802;SDS011;12082;51.786;6.018;2023-04-01T22:52:24;26.17;;;23.77;;
23802;SDS011;12082;51.786;6.018;2023-04-01T22:54:53;26.30;;;23.73;;
23802;SDS011;12082;51.786;6.018;2023-04-01T22:59:48;25.93;;;23.43;;
23802;SDS011;12082;51.786;6.018;2023-04-01T23:02:17;28.87;;;25.87;;
23802;SDS011;12082;51.786;6.018;2023-04-01T23:04:45;27.53;;;24.80;;
23802;SDS011;12082;51.786;6.018;2023-04-01T23:09:58;26.03;;;23.63;;
23802;SDS011;12082;51.786;6.018;2023-04-01T23:12:26;26.30;;;23.67;;
23802;SDS011;12082;51.786;6.018;2023-04-01T23:14:54;27.50;;;25.00;;
23802;SDS011;12082;51.786;6.018;2023-04-01T23:22:34;31.63;;;28.40;;
23802;SDS011;12082;51.786;6.018;2023-04-01T23:27:39;32.87;;;29.47;;
23802;SDS011;12082;51.786;6.018;2023-04-01T23:30:45;31.90;;;28.70;;
23802;SDS011;12082;51.786;6.018;2023-04-01T23:32:52;30.73;;;26.20;;
23802;SDS011;12082;51.786;6.018;2023-04-01T23:35:18;27.53;;;24.77;;
23802;SDS011;12082;51.786;6.018;2023-04-01T23:37:44;29.40;;;26.40;;
23802;SDS011;12082;51.786;6.018;2023-04-01T23:40:12;30.37;;;27.37;;
23802;SDS011;12082;51.786;6.018;2023-04-01T23:42:39;35.37;;;31.47;;
23802;SDS011;12082;51.786;6.018;2023-04-01T23:45:13;35.20;;;31.30;;
23802;SDS011;12082;51.786;6.018;2023-04-01T23:47:42;34.90;;;31.00;;
23802;SDS011;12082;51.786;6.018;2023-04-01T23:50:13;38.47;;;33.60;;
23802;SDS011;12082;51.786;6.018;2023-04-01T23:52:41;40.30;;;33.57;;
23802;SDS011;12082;51.786;6.018;2023-04-01T23:57:34;42.03;;;36.43;;
